createdAt,value
2023-02-15T00:00:05.165Z,-0.20
2023-02-15T00:02:32.424Z,-0.20
2023-02-15T00:08:58.878Z,-0.40
2023-02-15T00:12:03.674Z,-0.40
2023-02-15T00:22:30.875Z,-0.40
2023-02-15T00:29:01.810Z,-0.30
2023-02-15T00:35:24.829Z,-0.50
2023-02-15T00:37:53.401Z,-0.60
2023-02-15T00:40:20.539Z,-0.60
2023-02-15T00:43:01.797Z,-0.60
2023-02-15T00:45:28.860Z,-0.60
2023-02-15T00:47:55.883Z,-0.50
2023-02-15T00:50:24.038Z,-0.60
2023-02-15T00:52:51.185Z,-0.60
2023-02-15T00:55:18.261Z,-0.60
2023-02-15T00:58:30.033Z,-0.70
2023-02-15T01:00:59.619Z,-0.70
2023-02-15T01:03:26.716Z,-0.70
2023-02-15T01:05:59.227Z,-0.80
2023-02-15T01:08:27.661Z,-0.80
2023-02-15T01:10:54.828Z,-0.80
2023-02-15T01:13:28.127Z,-0.90
2023-02-15T01:15:55.694Z,-0.90
2023-02-15T01:18:23.120Z,-0.90
2023-02-15T01:20:59.454Z,-1.00
2023-02-15T01:23:26.537Z,-1.00
2023-02-15T01:25:53.553Z,-1.00
2023-02-15T01:28:25.300Z,-1.00
2023-02-15T01:30:52.417Z,-1.00
2023-02-15T01:33:19.542Z,-1.00
2023-02-15T01:36:30.939Z,-1.10
2023-02-15T01:38:57.961Z,-1.10
2023-02-15T01:41:25.457Z,-1.10
2023-02-15T01:48:06.074Z,-1.20
2023-02-15T01:50:40.478Z,-1.20
2023-02-15T01:53:19.706Z,-1.30
2023-02-15T01:55:48.540Z,-1.30
2023-02-15T01:58:16.075Z,-1.30
2023-02-15T02:00:48.352Z,-1.30
2023-02-15T02:03:15.419Z,-1.30
2023-02-15T02:05:44.498Z,-1.30
2023-02-15T02:08:13.227Z,-1.30
2023-02-15T02:10:40.280Z,-1.30
2023-02-15T02:13:39.315Z,-1.40
2023-02-15T02:16:09.552Z,-1.40
2023-02-15T02:26:38.703Z,-1.30
2023-02-15T02:29:41.400Z,-1.30
2023-02-15T02:32:09.089Z,-1.20
2023-02-15T02:34:42.363Z,-1.20
2023-02-15T02:37:13.313Z,-1.20
2023-02-15T02:39:47.373Z,-1.20
2023-02-15T02:42:43.324Z,-1.20
2023-02-15T02:45:52.425Z,-1.10
2023-02-15T02:48:23.628Z,-1.10
2023-02-15T02:50:50.830Z,-1.20
2023-02-15T02:53:19.986Z,-1.20
2023-02-15T02:55:48.137Z,-1.30
2023-02-15T02:58:20.598Z,-1.20
2023-02-15T03:04:28.229Z,-1.20
2023-02-15T03:06:59.238Z,-1.20
2023-02-15T03:09:52.436Z,-1.20
2023-02-15T03:16:33.920Z,-1.10
2023-02-15T03:19:02.567Z,-1.00
2023-02-15T03:21:32.863Z,-1.00
2023-02-15T03:24:27.351Z,-1.00
2023-02-15T03:26:54.475Z,-1.00
2023-02-15T03:29:24.666Z,-1.10
2023-02-15T03:32:17.387Z,-1.10
2023-02-15T03:34:44.516Z,-1.20
2023-02-15T03:37:59.101Z,-1.20
2023-02-15T03:44:06.242Z,-1.20
2023-02-15T03:46:34.591Z,-1.20
2023-02-15T03:49:05.769Z,-1.10
2023-02-15T03:51:39.934Z,-1.10
2023-02-15T04:02:36.726Z,-1.10
2023-02-15T04:05:30.687Z,-1.10
2023-02-15T04:07:57.740Z,-1.10
2023-02-15T04:10:43.460Z,-1.10
2023-02-15T04:13:10.480Z,-1.10
2023-02-15T04:19:10.858Z,-1.10
2023-02-15T04:25:12.109Z,-1.20
2023-02-15T04:27:39.379Z,-1.20
2023-02-15T04:30:07.373Z,-1.20
2023-02-15T04:32:35.132Z,-1.20
2023-02-15T04:35:02.385Z,-1.20
2023-02-15T04:37:29.451Z,-1.20
2023-02-15T04:43:57.392Z,-1.10
2023-02-15T04:46:25.470Z,-1.10
2023-02-15T04:48:52.566Z,-1.10
2023-02-15T04:51:19.839Z,-1.10
2023-02-15T04:54:29.289Z,-1.10
2023-02-15T04:56:56.350Z,-1.10
2023-02-15T04:59:23.419Z,-1.00
2023-02-15T05:09:50.785Z,-1.00
2023-02-15T05:12:37.353Z,-0.90
2023-02-15T05:15:04.509Z,-0.90
2023-02-15T05:17:31.520Z,-0.90
2023-02-15T05:19:58.694Z,-0.90
2023-02-15T05:22:25.743Z,-0.90
2023-02-15T05:35:51.986Z,-0.80
2023-02-15T05:38:19.019Z,-0.80
2023-02-15T05:44:39.797Z,-0.80
2023-02-15T05:47:08.863Z,-0.80
2023-02-15T05:49:36.052Z,-0.80
2023-02-15T05:52:03.599Z,-0.80
2023-02-15T05:54:57.042Z,-0.80
2023-02-15T05:57:24.082Z,-0.80
2023-02-15T05:59:51.124Z,-0.80
2023-02-15T06:02:19.253Z,-0.80
2023-02-15T06:04:47.028Z,-0.80
2023-02-15T06:07:14.038Z,-0.80
2023-02-15T06:09:58.433Z,-0.70
2023-02-15T06:12:25.510Z,-0.70
2023-02-15T06:15:27.302Z,-0.70
2023-02-15T06:17:56.433Z,-0.70
2023-02-15T06:20:23.476Z,-0.70
2023-02-15T06:22:50.503Z,-0.70
2023-02-15T06:26:05.217Z,-0.70
2023-02-15T06:28:32.278Z,-0.70
2023-02-15T06:31:05.402Z,-0.70
2023-02-15T06:33:34.674Z,-0.70
2023-02-15T06:36:02.735Z,-0.70
2023-02-15T06:38:30.103Z,-0.80
2023-02-15T06:41:22.033Z,-0.70
2023-02-15T06:43:49.147Z,-0.70
2023-02-15T06:46:16.227Z,-0.80
2023-02-15T06:48:48.229Z,-0.80
2023-02-15T06:51:15.286Z,-0.80
2023-02-15T06:53:43.743Z,-0.80
2023-02-15T06:56:29.301Z,-0.80
2023-02-15T06:58:56.381Z,-0.80
2023-02-15T07:01:23.567Z,-0.70
2023-02-15T07:03:51.767Z,-0.70
2023-02-15T07:06:18.829Z,-0.70
2023-02-15T07:08:45.914Z,-0.70
2023-02-15T07:11:54.035Z,-0.70
2023-02-15T07:14:21.138Z,-0.70
2023-02-15T07:16:48.142Z,-0.60
2023-02-15T07:20:01.064Z,-0.60
2023-02-15T07:22:28.768Z,-0.60
2023-02-15T07:24:55.851Z,-0.50
2023-02-15T07:31:03.605Z,-0.50
2023-02-15T07:33:31.431Z,-0.50
2023-02-15T07:39:58.739Z,-0.50
2023-02-15T07:46:26.179Z,-0.40
2023-02-15T07:48:53.239Z,-0.40
2023-02-15T07:51:20.294Z,-0.40
2023-02-15T07:53:52.534Z,-0.30
2023-02-15T07:56:19.623Z,-0.30
2023-02-15T08:03:18.461Z,-0.20
2023-02-15T08:05:45.650Z,-0.30
2023-02-15T08:08:31.251Z,-0.30
2023-02-15T08:14:30.483Z,-0.30
2023-02-15T08:17:00.391Z,-0.20
2023-02-15T08:19:28.486Z,-0.20
2023-02-15T08:22:35.962Z,-0.20
2023-02-15T08:25:03.022Z,-0.10
2023-02-15T08:27:30.162Z,-0.10
2023-02-15T08:33:27.977Z,0.00
2023-02-15T08:35:55.031Z,0.10
2023-02-15T08:38:22.042Z,0.20
2023-02-15T08:40:49.033Z,0.20
2023-02-15T08:43:16.087Z,0.30
2023-02-15T08:45:44.129Z,0.30
2023-02-15T08:48:11.252Z,0.40
2023-02-15T08:50:38.330Z,0.50
2023-02-15T08:53:12.821Z,0.60
2023-02-15T08:55:40.770Z,0.70
2023-02-15T08:58:07.893Z,0.80
2023-02-15T09:01:12.772Z,0.90
2023-02-15T09:03:39.950Z,1.00
2023-02-15T09:06:07.032Z,1.10
2023-02-15T09:12:09.798Z,1.10
2023-02-15T09:14:36.881Z,1.10
2023-02-15T09:17:08.183Z,1.10
2023-02-15T09:19:35.252Z,1.20
2023-02-15T09:22:02.352Z,1.20
2023-02-15T09:24:40.744Z,1.20
2023-02-15T09:27:08.072Z,1.30
2023-02-15T09:29:35.153Z,1.40
2023-02-15T09:32:02.298Z,1.50
2023-02-15T09:34:29.385Z,1.50
2023-02-15T09:36:56.590Z,1.60
2023-02-15T09:39:24.851Z,1.70
2023-02-15T09:42:05.774Z,1.70
2023-02-15T09:44:32.760Z,1.80
2023-02-15T09:47:23.317Z,1.80
2023-02-15T09:49:53.752Z,1.90
2023-02-15T09:52:26.986Z,1.90
2023-02-15T09:55:12.411Z,2.00
2023-02-15T09:57:54.576Z,2.00
2023-02-15T10:00:42.894Z,2.10
2023-02-15T10:03:12.826Z,2.10
2023-02-15T10:05:44.210Z,2.20
2023-02-15T10:08:19.415Z,2.20
2023-02-15T10:10:52.461Z,2.20
2023-02-15T10:13:48.873Z,2.40
2023-02-15T10:16:44.004Z,2.40
2023-02-15T10:19:17.998Z,2.40
2023-02-15T10:21:49.447Z,2.50
2023-02-15T10:24:40.639Z,2.60
2023-02-15T10:27:10.070Z,2.70
2023-02-15T10:29:37.922Z,2.70
2023-02-15T10:32:11.101Z,2.80
2023-02-15T10:34:39.507Z,2.90
2023-02-15T10:37:21.739Z,3.00
2023-02-15T10:39:48.838Z,3.00
2023-02-15T10:42:28.167Z,3.10
2023-02-15T10:44:55.219Z,3.20
2023-02-15T10:47:41.586Z,3.30
2023-02-15T10:50:12.949Z,3.30
2023-02-15T10:52:55.500Z,3.30
2023-02-15T10:55:42.868Z,3.40
2023-02-15T10:58:16.499Z,3.40
2023-02-15T11:00:43.581Z,3.50
2023-02-15T11:03:13.794Z,3.50
2023-02-15T11:05:55.085Z,3.60
2023-02-15T11:08:22.194Z,3.60
2023-02-15T11:10:56.000Z,3.60
2023-02-15T11:13:23.648Z,3.60
2023-02-15T11:15:58.041Z,3.70
2023-02-15T11:18:25.147Z,3.70
2023-02-15T11:21:21.211Z,3.70
2023-02-15T11:23:48.409Z,3.80
2023-02-15T11:26:16.976Z,3.90
2023-02-15T11:28:46.093Z,4.00
2023-02-15T11:31:16.895Z,4.00
2023-02-15T11:33:46.291Z,4.00
2023-02-15T11:36:14.788Z,4.00
2023-02-15T11:38:44.889Z,4.10
2023-02-15T11:41:12.590Z,4.10
2023-02-15T11:43:54.510Z,4.20
2023-02-15T11:46:22.694Z,4.20
2023-02-15T11:48:49.835Z,4.30
2023-02-15T11:51:18.619Z,4.40
2023-02-15T11:53:45.852Z,4.60
2023-02-15T11:56:19.013Z,4.60
2023-02-15T11:58:48.232Z,4.60
2023-02-15T12:01:21.388Z,4.70
2023-02-15T12:03:49.574Z,4.80
2023-02-15T12:06:20.153Z,4.90
2023-02-15T12:08:49.990Z,4.90
2023-02-15T12:11:18.570Z,4.90
2023-02-15T12:14:01.892Z,5.00
2023-02-15T12:16:29.402Z,5.00
2023-02-15T12:18:57.735Z,5.10
2023-02-15T12:21:27.648Z,5.20
2023-02-15T12:23:55.774Z,5.20
2023-02-15T12:26:35.586Z,5.30
2023-02-15T12:29:08.137Z,5.30
2023-02-15T12:31:37.628Z,5.40
2023-02-15T12:34:08.753Z,5.40
2023-02-15T12:36:46.637Z,5.50
2023-02-15T12:39:13.777Z,5.50
2023-02-15T12:42:10.043Z,5.60
2023-02-15T12:44:38.053Z,5.60
2023-02-15T12:51:12.679Z,5.80
2023-02-15T12:53:40.225Z,5.90
2023-02-15T12:56:08.260Z,5.90
2023-02-15T13:02:38.437Z,6.00
2023-02-15T13:05:07.009Z,6.10
2023-02-15T13:07:34.215Z,6.10
2023-02-15T13:10:01.380Z,6.10
2023-02-15T13:13:15.977Z,6.10
2023-02-15T13:19:57.007Z,6.20
2023-02-15T13:22:29.395Z,6.30
2023-02-15T13:25:41.861Z,6.20
2023-02-15T13:28:11.456Z,6.30
2023-02-15T13:31:11.207Z,6.30
2023-02-15T13:33:38.403Z,6.30
2023-02-15T13:36:28.139Z,6.40
2023-02-15T13:39:24.307Z,6.40
2023-02-15T13:41:53.418Z,6.40
2023-02-15T13:45:04.871Z,6.50
2023-02-15T13:51:06.941Z,6.50
2023-02-15T13:53:51.016Z,6.50
2023-02-15T13:59:47.409Z,6.50
2023-02-15T14:02:46.106Z,6.50
2023-02-15T14:05:19.424Z,6.50
2023-02-15T14:07:57.787Z,6.50
2023-02-15T14:10:27.880Z,6.50
2023-02-15T14:13:15.686Z,6.50
2023-02-15T14:16:32.342Z,6.50
2023-02-15T14:19:18.312Z,6.50
2023-02-15T14:21:48.188Z,6.50
2023-02-15T14:24:29.630Z,6.40
2023-02-15T14:27:22.951Z,6.40
2023-02-15T14:30:18.191Z,6.50
2023-02-15T14:32:55.903Z,6.50
2023-02-15T14:35:48.021Z,6.50
2023-02-15T14:38:41.943Z,6.50
2023-02-15T14:41:53.977Z,6.50
2023-02-15T14:44:23.932Z,6.50
2023-02-15T14:46:52.089Z,6.50
2023-02-15T14:54:07.026Z,6.50
2023-02-15T14:56:34.235Z,6.50
2023-02-15T14:59:02.965Z,6.40
2023-02-15T15:01:52.217Z,6.40
2023-02-15T15:04:55.680Z,6.40
2023-02-15T15:07:23.596Z,6.30
2023-02-15T15:10:01.117Z,6.30
2023-02-15T15:12:34.362Z,6.20
2023-02-15T15:15:39.609Z,6.10
2023-02-15T15:18:08.064Z,6.10
2023-02-15T15:20:52.116Z,6.10
2023-02-15T15:23:19.379Z,6.10
2023-02-15T15:26:01.985Z,6.00
2023-02-15T15:28:35.661Z,5.90
2023-02-15T15:31:21.773Z,5.90
2023-02-15T15:33:49.086Z,5.80
2023-02-15T15:36:42.504Z,5.80
2023-02-15T15:42:53.630Z,5.60
2023-02-15T15:45:55.529Z,5.60
2023-02-15T15:48:37.978Z,5.50
2023-02-15T15:51:16.175Z,5.50
2023-02-15T15:53:43.816Z,5.40
2023-02-15T15:56:35.957Z,5.30
2023-02-15T15:59:06.797Z,5.30
2023-02-15T16:01:41.434Z,5.20
2023-02-15T16:04:11.213Z,5.10
2023-02-15T16:06:39.167Z,5.00
2023-02-15T16:13:07.033Z,4.90
2023-02-15T16:19:35.127Z,4.80
2023-02-15T16:22:28.318Z,4.70
2023-02-15T16:25:10.471Z,4.50
2023-02-15T16:27:40.596Z,4.40
2023-02-15T16:30:45.840Z,4.20
2023-02-15T16:33:14.052Z,4.10
2023-02-15T16:36:08.687Z,4.00
2023-02-15T16:38:46.187Z,4.00
2023-02-15T16:41:25.057Z,4.00
2023-02-15T16:44:19.384Z,3.90
2023-02-15T16:47:25.300Z,3.80
2023-02-15T16:49:54.164Z,3.80
2023-02-15T16:52:42.717Z,3.60
2023-02-15T16:55:24.894Z,3.60
2023-02-15T16:58:43.580Z,3.50
2023-02-15T17:01:41.167Z,3.30
2023-02-15T17:04:37.260Z,3.30
2023-02-15T17:07:21.597Z,3.10
2023-02-15T17:10:12.798Z,3.00
2023-02-15T17:12:47.113Z,2.90
2023-02-15T17:15:34.159Z,2.80
2023-02-15T17:18:03.362Z,2.60
2023-02-15T17:20:33.366Z,2.50
2023-02-15T17:23:02.039Z,2.50
2023-02-15T17:25:39.292Z,2.30
2023-02-15T17:28:07.920Z,2.20
2023-02-15T17:30:38.750Z,2.00
2023-02-15T17:33:08.082Z,1.90
2023-02-15T17:35:38.042Z,1.80
2023-02-15T17:38:20.722Z,1.80
2023-02-15T17:40:48.199Z,1.80
2023-02-15T17:43:15.202Z,1.80
2023-02-15T17:45:47.599Z,1.80
2023-02-15T17:48:25.222Z,1.90
2023-02-15T17:50:52.391Z,1.90
2023-02-15T17:53:19.596Z,1.90
2023-02-15T17:55:46.959Z,1.80
2023-02-15T17:58:14.671Z,1.80
2023-02-15T18:01:04.198Z,1.70
2023-02-15T18:04:10.533Z,1.70
2023-02-15T18:06:57.863Z,1.70
2023-02-15T18:09:43.573Z,1.80
2023-02-15T18:12:21.400Z,1.80
2023-02-15T18:14:48.856Z,1.80
2023-02-15T18:17:16.139Z,1.80
2023-02-15T18:19:43.592Z,1.80
2023-02-15T18:22:14.483Z,1.80
2023-02-15T18:24:42.706Z,1.80
2023-02-15T18:27:13.042Z,1.80
2023-02-15T18:29:40.074Z,1.80
2023-02-15T18:32:07.909Z,1.80
2023-02-15T18:34:35.918Z,1.80
2023-02-15T18:37:02.904Z,1.80
2023-02-15T18:39:50.230Z,1.70
2023-02-15T18:42:24.371Z,1.70
2023-02-15T18:44:56.278Z,1.70
2023-02-15T18:47:23.492Z,1.60
2023-02-15T18:49:50.570Z,1.60
2023-02-15T18:52:18.494Z,1.60
2023-02-15T18:54:45.846Z,1.50
2023-02-15T18:57:13.320Z,1.50
2023-02-15T18:59:40.418Z,1.50
2023-02-15T19:02:11.898Z,1.40
2023-02-15T19:04:38.988Z,1.50
2023-02-15T19:07:05.976Z,1.50
2023-02-15T19:09:32.982Z,1.50
2023-02-15T19:12:00.429Z,1.60
2023-02-15T19:14:31.597Z,1.60
2023-02-15T19:16:59.086Z,1.70
2023-02-15T19:19:26.285Z,1.70
2023-02-15T19:21:53.311Z,1.70
2023-02-15T19:24:25.288Z,1.70
2023-02-15T19:26:53.419Z,1.70
2023-02-15T19:29:24.437Z,1.70
2023-02-15T19:31:51.562Z,1.70
2023-02-15T19:34:18.638Z,1.80
2023-02-15T19:36:46.792Z,1.80
2023-02-15T19:39:27.738Z,1.80
2023-02-15T19:41:55.434Z,1.80
2023-02-15T19:44:22.526Z,1.80
2023-02-15T19:46:49.614Z,1.80
2023-02-15T19:49:16.737Z,1.70
2023-02-15T19:51:43.808Z,1.70
2023-02-15T19:54:17.357Z,1.70
2023-02-15T19:56:44.460Z,1.70
2023-02-15T19:59:20.828Z,1.70
2023-02-15T20:01:47.895Z,1.70
2023-02-15T20:04:15.081Z,1.60
2023-02-15T20:06:42.232Z,1.60
2023-02-15T20:09:13.997Z,1.60
2023-02-15T20:11:41.089Z,1.60
2023-02-15T20:14:11.203Z,1.60
2023-02-15T20:16:38.219Z,1.60
2023-02-15T20:19:05.288Z,1.50
2023-02-15T20:21:32.354Z,1.50
2023-02-15T20:24:00.107Z,1.50
2023-02-15T20:26:31.231Z,1.60
2023-02-15T20:28:58.878Z,1.60
2023-02-15T20:31:26.127Z,1.50
2023-02-15T20:33:53.285Z,1.50
2023-02-15T20:36:21.496Z,1.50
2023-02-15T20:38:48.588Z,1.50
2023-02-15T20:41:34.838Z,1.50
2023-02-15T20:44:02.395Z,1.50
2023-02-15T20:46:29.492Z,1.50
2023-02-15T20:48:56.612Z,1.50
2023-02-15T20:51:23.683Z,1.50
2023-02-15T20:53:50.737Z,1.50
2023-02-15T20:56:19.399Z,1.50
2023-02-15T20:58:46.441Z,1.50
2023-02-15T21:01:13.511Z,1.50
2023-02-15T21:03:40.605Z,1.50
2023-02-15T21:06:12.217Z,1.60
2023-02-15T21:08:39.626Z,1.50
2023-02-15T21:11:13.052Z,1.60
2023-02-15T21:13:40.163Z,1.60
2023-02-15T21:16:08.894Z,1.60
2023-02-15T21:18:38.762Z,1.60
2023-02-15T21:21:06.314Z,1.60
2023-02-15T21:23:37.762Z,1.60
2023-02-15T21:26:05.524Z,1.60
2023-02-15T21:28:32.559Z,1.50
2023-02-15T21:30:59.998Z,1.50
2023-02-15T21:33:27.233Z,1.50
2023-02-15T21:35:54.844Z,1.50
2023-02-15T21:38:22.620Z,1.50
2023-02-15T21:40:49.946Z,1.50
2023-02-15T21:43:36.379Z,1.50
2023-02-15T21:46:31.869Z,1.50
2023-02-15T21:48:58.982Z,1.50
2023-02-15T21:51:44.836Z,1.50
2023-02-15T21:54:12.803Z,1.40
2023-02-15T21:56:41.381Z,1.40
2023-02-15T21:59:15.108Z,1.40
2023-02-15T22:01:42.763Z,1.40
2023-02-15T22:04:13.949Z,1.40
2023-02-15T22:06:41.377Z,1.40
2023-02-15T22:09:15.408Z,1.40
2023-02-15T22:11:42.536Z,1.40
2023-02-15T22:14:28.419Z,1.40
2023-02-15T22:16:55.513Z,1.30
2023-02-15T22:19:22.574Z,1.30
2023-02-15T22:21:49.601Z,1.30
2023-02-15T22:24:16.657Z,1.30
2023-02-15T22:26:43.744Z,1.30
2023-02-15T22:29:15.545Z,1.30
2023-02-15T22:31:42.711Z,1.30
2023-02-15T22:34:26.674Z,1.30
2023-02-15T22:36:54.120Z,1.30
2023-02-15T22:39:22.521Z,1.30
2023-02-15T22:41:49.539Z,1.30
2023-02-15T22:44:17.905Z,1.30
2023-02-15T22:46:45.016Z,1.30
2023-02-15T22:49:12.835Z,1.30
2023-02-15T22:51:39.947Z,1.30
2023-02-15T22:54:07.089Z,1.30
2023-02-15T22:56:35.669Z,1.30
2023-02-15T22:59:04.559Z,1.30
2023-02-15T23:01:32.310Z,1.20
2023-02-15T23:04:02.683Z,1.20
2023-02-15T23:06:30.342Z,1.10
2023-02-15T23:08:57.608Z,1.10
2023-02-15T23:11:24.665Z,1.10
2023-02-15T23:13:51.726Z,1.10
2023-02-15T23:16:19.909Z,1.00
2023-02-15T23:18:47.068Z,1.10
2023-02-15T23:21:17.189Z,1.00
2023-02-15T23:23:44.896Z,1.00
2023-02-15T23:26:28.108Z,1.00
2023-02-15T23:28:55.897Z,1.00
2023-02-15T23:31:23.900Z,0.90
2023-02-15T23:33:52.627Z,0.90
2023-02-15T23:36:38.524Z,0.90
2023-02-15T23:39:31.007Z,0.90
2023-02-15T23:41:58.635Z,0.80
2023-02-15T23:44:25.687Z,0.80
2023-02-15T23:46:52.749Z,0.80
2023-02-15T23:49:19.920Z,0.80
2023-02-15T23:51:49.957Z,0.70
2023-02-15T23:54:17.453Z,0.70
2023-02-15T23:56:45.363Z,0.70
2023-02-15T23:59:19.557Z,0.70
